Agil Nadirov

Chief Scout - Qarabag
22 Feb 2027
Monday
Process

Personality

Adaptability (12) Ambition (15) Controversy (1) Loyalty (9) Pressure (17) Professionalism (13) Sportsmanship (18) Temperament (2)

Profile

Coaching Style Democratic
License Continental C
Determination 9
Man Management 10
Motivating 4
Discipline 7
Job Satisfaction
93%
Fatigue
0%
Role Chief Scout
Wage 45.5K p/w
Contract 14.03.2027

Performance

Behaviour Good
Training Effectiveness
48%
Player Development
55%
Injury Prevention
35%
Tactical Implementation
60%

Recent Events

Assessed a player now
Contract negotiation started now
Assessed a player now
Contract negotiation started now
Assessed a player now
Contract negotiation started now
Assessed a player now
Contract negotiation started now

Currently Monitoring

141
Player Club Status Ability Confidence Watched Last Observed Latest Vote
David Kalokoh Ajax Active 119 / 117 40% 6 21.02.2027 -
Vyacheslav Grulev Nizhniy Novgorod Active 103 / 102 40% 2 21.02.2027 -
Dani Gómez Zaragoza Active 123 / 113 40% 3 21.02.2027 -
Mikhail Ignatov Sochi Active 115 / 117 40% 2 19.02.2027 -
Sinclair Armstrong Bristol City Active 119 / 126 40% 2 19.02.2027 -
Jan Hurtado Volos NPS Active 115 / 105 40% 3 18.02.2027 -
Pavel Meleshin Sochi Active 107 / 132 40% 3 18.02.2027 -
Kerwin Vargas Charlotte Football Club Active 123 / 126 40% 2 18.02.2027 -
Juanjo Narváez Al-Ra'ed Active 107 / 128 40% 4 17.02.2027 -
Everton Bala Levski Active 131 / 138 40% 2 16.02.2027 -
Rhian Brewster Derby County Active 125 / 115 40% 1 16.02.2027 -
Salvador Blopá Sporting CP Active 115 / 119 40% 5 14.02.2027 -
Martim Cunha Porto Active 102 / 100 40% 3 14.02.2027 -
Alejo Sarco Gijón Active 119 / 127 40% 1 14.02.2027 -
Maldini Kacurri Grimsby Town Active 88 / 99 40% 1 14.02.2027 -
Macaulay Langstaff Millwall Active 119 / 114 40% 4 12.02.2027 -
Fabrizio Sartori Independiente Rivadavia Active 108 / 128 40% 1 12.02.2027 -
Leandro Martins Benfica Active 93 / 100 40% 2 11.02.2027 -
Jakub Jendryka Ruch Active 81 / 91 40% 2 11.02.2027 -
Edarlyn Reyes Arsenal Tula Active 110 / 104 40% 2 11.02.2027 -
Brayan Gil Baltika Active 133 / 117 40% 2 11.02.2027 -
Yegor Golenkov Rostov Active 117 / 131 40% 1 11.02.2027 -
Davinchi Getafe Active 114 / 122 40% 4 10.02.2027 -
Alessio Insignito Spezia Active 96 / 106 40% 3 10.02.2027 -
Marius Courcoul Angers SCO Active 108 / 127 40% 1 10.02.2027 -
Mohamed Konaté Akhmat Grozny Active 118 / 122 40% 2 09.02.2027 -
Chuba Akpom Ipswich Town Active 126 / 128 40% 1 09.02.2027 -
Elie N'Gatta Sochaux Active 90 / 101 40% 2 08.02.2027 -
Riyad Idrissi Cagliari Active 120 / 126 40% 2 08.02.2027 -
Sabil Hansen Randers Active 105 / 100 40% 3 06.02.2027 -
Václav Sejk Sigma Olomouc Active 108 / 124 40% 1 06.02.2027 -
Maeson King Oxford United Active 105 / 107 40% 1 06.02.2027 -
Tiago Freitas Benfica Active 103 / 115 40% 1 06.02.2027 -
Giovanni Simeone Torino Active 143 / 140 40% 2 04.02.2027 -
Georgy Melkadze Akhmat Grozny Active 103 / 106 40% 1 04.02.2027 -
Cemran Dansin Orlando Pirates Active 113 / 128 40% 6 02.02.2027 -
Matías Gómez Celta Active 118 / 120 40% 2 02.02.2027 -
Egas Cacintura Akhmat Grozny Active 125 / 117 40% 1 02.02.2027 -
Khalfan Nader Al Shaab Active 91 / 99 40% 1 02.02.2027 -
Roger Hinojo Espanyol Active 115 / 118 40% 7 01.02.2027 -
Gonçalo Oliveira Benfica Active 102 / 110 40% 3 01.02.2027 -
Lucas Mbamba Westerlo Active 90 / 100 40% 1 01.02.2027 -
François Kamano Sochi Active 108 / 115 40% 3 30.01.2027 -
Dardan Shabanhaxhaj Rubin Active 127 / 104 40% 1 30.01.2027 -
Vinícius Lira Santos Active 106 / 120 40% 6 28.01.2027 -
Jacques Siwe Rubin Active 106 / 117 40% 1 25.01.2027 -
Ivan Sergeev Dinamo Moscow Active 134 / 137 40% 1 25.01.2027 -
Jay-Roy Grot OB Active 117 / 108 40% 1 24.01.2027 -
Joseph Namatane FC Metz Active 96 / 93 40% 1 24.01.2027 -
Jofre Torrents Ajax Active 114 / 138 40% 7 22.01.2027 -
Patrice Čović Werder Bremen Active 111 / 119 40% 1 22.01.2027 -
Agil Ozobic Khazar Active 92 / 90 40% 4 21.01.2027 -
Simphiwe Selepe Orlando Pirates Active 121 / 122 40% 3 21.01.2027 -
Sam Parker Swansea City Active 99 / 105 40% 1 21.01.2027 -
Davit Volkovi Zira Rejected 125 / 115 69% 2 14.01.2027 Reject
Alejandro Melo Temperley Active 104 / 123 40% 1 14.01.2027 -
Matheus Alves CSKA Moscow Active 132 / 130 40% 1 14.01.2027 -
Chinedu Geoffrey Krylya Sovetov Active 107 / 105 40% 1 13.01.2027 -
Jaygo van Ommeren Utrecht Active 97 / 118 40% 1 10.01.2027 -
Harrison Armstrong Everton Active 124 / 133 40% 12 07.01.2027 -
Adam Aznou Everton Active 121 / 134 40% 2 05.01.2027 -
Daniel Banjaqui Benfica Active 104 / 117 40% 3 05.01.2027 -
Tobías Andrada River Plate Active 108 / 132 40% 2 04.01.2027 -
Majed Hussain Al Shaab Active 94 / 124 40% 1 04.01.2027 -
Javid Ozobic Khazar Report Ready 120 / 123 69% 1 02.01.2027 Approve
Alejo Fernández Kayserispor Active 92 / 96 40% 1 02.01.2027 -
Surprise Manthosi Polokwane City Active 92 / 85 40% 2 01.01.2027 -
Bernardo Lima Porto Active 92 / 101 40% 1 01.01.2027 -
Brian Blando Agropecuario Argentino Lost 122 / 98 40% 1 31.12.2026 -
Miro Dinamo Makhachkala Active 115 / 104 40% 1 31.12.2026 -
Brayan León Mamelodi Sundowns Active 127 / 114 40% 1 31.12.2026 -
Illaijh de Ruijter ADO Den Haag Active 108 / 125 40% 5 25.12.2026 -
Andrija Bulatović RC Lens Active 116 / 125 40% 2 25.12.2026 -
Matija Marsenić Cukaricki Active 106 / 101 40% 1 25.12.2026 -
Eduardo Felicíssimo Sporting CP Active 105 / 114 40% 1 24.12.2026 -
Petar Antolković Sesvete Active 82 / 104 40% 1 24.12.2026 -
Agustín Obregón River Plate Active 109 / 126 40% 4 23.12.2026 -
Runar Norheim FC Nordsjaelland Active 122 / 127 40% 1 22.12.2026 -
André Oliveira Porto Active 94 / 104 40% 3 21.12.2026 -
Juan Pablo De la Reta Maipú Active 108 / 120 40% 2 19.12.2026 -
Ibrahim Khalfan Baniyas Active 90 / 95 40% 1 10.12.2026 -
Sebastián del Castillo Millonarios Active 115 / 110 40% 1 10.12.2026 -
Matthew Litherland Blackburn Rovers Active 104 / 108 40% 2 04.12.2026 -
Ezra Mayers West Ham United Active 108 / 120 40% 3 04.12.2026 -
Lucas Noubi Deportivo La Coruña Active 117 / 123 40% 2 26.11.2026 -
Viery Fiorentina Active 123 / 120 40% 4 26.11.2026 -
Alejo Gelsomino Gimnasia La Plata Active 97 / 102 40% 1 23.11.2026 -
Eyad El Askalany Rostov Active 102 / 88 40% 2 22.11.2026 -
Dmitry Ivannikov Chaika Active 100 / 80 40% 2 20.11.2026 -
Law McCabe Middlesbrough Active 110 / 118 40% 6 16.11.2026 -
João Muniz Sporting CP Active 112 / 124 40% 4 10.11.2026 -
Bohdan Budko AZ Active 113 / 116 40% 1 10.11.2026 -
Jacob Wright Norwich City Active 121 / 126 40% 1 07.11.2026 -
Camilo Rey Domenech Boca Juniors Active 124 / 129 40% 4 04.11.2026 -
Thiago Helguera Braga Active 122 / 134 40% 1 04.11.2026 -
Riquelme Thompson-Jones Birmingham Active 104 / 116 40% 3 03.11.2026 -
Lucas Jetten Cambuur Active 100 / 123 40% 1 01.11.2026 -
Stuart Hawkins Seattle Sounders Active 100 / 96 40% 1 26.10.2026 -
Felipe Schaare Racing Club Active 84 / 94 40% 1 24.10.2026 -
Víctor Reyes Deportes Tolima Active 96 / 93 40% 2 23.10.2026 -
Matías Magdaleno Estudiantes Active 92 / 102 40% 2 23.10.2026 -
Siyabonga Mabunda FCSB Active 93 / 101 40% 1 22.10.2026 -
Tommy McDermott Burnley Active 102 / 97 40% 1 19.10.2026 -
Charlie Tasker Brighton Active 98 / 107 40% 1 14.10.2026 -
Rachid Moumini Sumgayit Active 117 / 110 40% 2 12.10.2026 -
Lucas Richarte Temperley Active 108 / 120 40% 1 09.10.2026 -
Zach Mitchell Charlton Athletic Active 96 / 106 40% 1 08.10.2026 -
Rhys Walters Port Vale Active 95 / 110 40% 1 07.10.2026 -
Alfie Harrison Newcastle United Active 89 / 99 40% 2 07.09.2026 -
Miodrag Pivaš Newcastle United Active 95 / 100 40% 1 07.09.2026 -
Juan Cruz Cortazzo Albacete Active 110 / 115 40% 1 07.09.2026 -
Román Zalazar Nueva Chicago Active 82 / 98 40% 1 05.09.2026 -
Aiden Hezarkhani Real Salt Lake Active 92 / 95 40% 1 04.09.2026 -
Tom Atcheson Blackburn Rovers Active 109 / 111 40% 1 03.09.2026 -
Ramiro Vitale Racing Club Active 99 / 94 40% 1 03.09.2026 -
Mateo Muñoz Vélez Active 94 / 109 40% 1 02.09.2026 -
Valentín Culasso Talleres Active 81 / 112 40% 1 02.09.2026 -
Bruno Ogbus SC Freiburg Active 123 / 134 40% 2 01.09.2026 -
Josh Laqeretabua Charlton Athletic Active 99 / 94 40% 2 31.08.2026 -
Facundo González River Plate Active 95 / 95 40% 1 28.08.2026 -
Kristian Eriksen Molde Active 130 / 118 40% 2 27.08.2026 -
Marcelo Torres Gimnasia La Plata Active 112 / 103 40% 1 27.08.2026 -
Bendito Mantato Manchester United Active 97 / 97 40% 1 26.08.2026 -
Lucio Greco San Lorenzo Active 75 / 102 40% 1 24.08.2026 -
Marcus Forss Middlesbrough Active 107 / 119 40% 1 21.08.2026 -
Juan Segundo Miretti River Plate Active 103 / 108 40% 1 17.08.2026 -
Agustín Alvez San Lorenzo Active 94 / 89 40% 1 17.08.2026 -
Matai Akinmboni Bournemouth Active 95 / 115 40% 1 17.08.2026 -
Ramiro Ruiz Rodríguez Atlético Tucumán Active 127 / 123 40% 1 13.08.2026 -
Cristian Núñez Huracán Active 102 / 117 40% 1 13.08.2026 -
Marius Noubissi Pyunik Active 117 / 112 40% 1 13.08.2026 -
Joaquín Salas Talleres Active 90 / 107 40% 1 09.08.2026 -
Stefan Džodić Almería Active 102 / 106 40% 1 08.08.2026 -
Guillermo Abregú Atlético Tucumán Active 86 / 90 40% 1 06.08.2026 -
João Pedro Sport Recife Active 80 / 82 40% 1 04.08.2026 -
Honest Ahanor Atalanta Active 119 / 141 40% 1 04.08.2026 -
Lucas Agazzi Defensor Sporting Active 117 / 126 40% 1 02.08.2026 -
Francisco Razzeto Sarmiento Active 82 / 93 40% 1 02.08.2026 -
Pedro Dacrema Independiente Rivadavia Active 98 / 88 40% 1 02.08.2026 -
Adrián Fuentes Mallorca Active 120 / 126 40% 1 01.08.2026 -
Tashreeq Matthews Mamelodi Sundowns Active 115 / 108 40% 1 01.08.2026 -